Weather at Gutchpool Farm Airstrip

Public forecast

Using degrees Celsius for public forecast. Weather courtesy of forecast.io.

Closest aviation weather report (METAR) to Gutchpool Farm Airstrip

Closest report is RNAS Yeovilton, 15.6 nm (28.8 km) W. Retrieved 2021/07/27 23:25 UTC (21 minutes ago):

EGDY 272325Z 26006KT CAVOK 16/14 Q1008 TEMPO 5000 SHRA SCT020TCU RMK BLU TEMPO WHT

Closest aviation forecast (TAF) to Gutchpool Farm Airstrip

Forecast is more than 12 hours old.

Closest forecast is RNAS Yeovilton, 15.6 nm (28.8 km) W. Retrieved 2020/10/05 06:30 UTC (10 months ago):

TAF TAF EGDY 051025Z 0506/0518 CNL